sensor_id;sensor_type;location;lat;lon;timestamp;P1;durP1;ratioP1;P2;durP2;ratioP2
15818;SDS011;8010;53.986;12.106;2024-03-22T00:00:12;17.77;;;10.07;;
15818;SDS011;8010;53.986;12.106;2024-03-22T00:02:38;18.20;;;9.30;;
15818;SDS011;8010;53.986;12.106;2024-03-22T00:05:04;14.37;;;8.40;;
15818;SDS011;8010;53.986;12.106;2024-03-22T00:07:30;16.37;;;9.23;;
15818;SDS011;8010;53.986;12.106;2024-03-22T00:09:56;17.70;;;9.57;;
15818;SDS011;8010;53.986;12.106;2024-03-22T00:12:21;17.77;;;8.70;;
15818;SDS011;8010;53.986;12.106;2024-03-22T00:14:47;14.53;;;8.47;;
15818;SDS011;8010;53.986;12.106;2024-03-22T00:17:13;18.50;;;9.47;;
15818;SDS011;8010;53.986;12.106;2024-03-22T00:19:39;14.87;;;9.20;;
15818;SDS011;8010;53.986;12.106;2024-03-22T00:22:04;21.93;;;9.33;;
15818;SDS011;8010;53.986;12.106;2024-03-22T00:24:30;19.87;;;10.03;;
15818;SDS011;8010;53.986;12.106;2024-03-22T00:26:55;20.23;;;9.70;;
15818;SDS011;8010;53.986;12.106;2024-03-22T00:29:21;16.33;;;8.23;;
15818;SDS011;8010;53.986;12.106;2024-03-22T00:31:47;18.93;;;10.10;;
15818;SDS011;8010;53.986;12.106;2024-03-22T00:34:12;15.07;;;9.17;;
15818;SDS011;8010;53.986;12.106;2024-03-22T00:36:38;19.33;;;8.80;;
15818;SDS011;8010;53.986;12.106;2024-03-22T00:39:03;20.13;;;9.90;;
15818;SDS011;8010;53.986;12.106;2024-03-22T00:41:29;14.27;;;8.57;;
15818;SDS011;8010;53.986;12.106;2024-03-22T00:43:54;16.73;;;9.37;;
15818;SDS011;8010;53.986;12.106;2024-03-22T00:46:20;15.13;;;8.97;;
15818;SDS011;8010;53.986;12.106;2024-03-22T00:48:45;16.80;;;10.00;;
15818;SDS011;8010;53.986;12.106;2024-03-22T00:51:11;18.00;;;8.43;;
15818;SDS011;8010;53.986;12.106;2024-03-22T00:53:37;19.00;;;9.23;;
15818;SDS011;8010;53.986;12.106;2024-03-22T00:56:02;23.77;;;9.67;;
15818;SDS011;8010;53.986;12.106;2024-03-22T00:58:28;18.17;;;9.00;;
15818;SDS011;8010;53.986;12.106;2024-03-22T01:00:54;17.13;;;9.30;;
15818;SDS011;8010;53.986;12.106;2024-03-22T01:03:20;16.63;;;9.63;;
15818;SDS011;8010;53.986;12.106;2024-03-22T01:05:46;19.83;;;9.73;;
15818;SDS011;8010;53.986;12.106;2024-03-22T01:08:12;15.70;;;9.00;;
15818;SDS011;8010;53.986;12.106;2024-03-22T01:10:37;18.83;;;9.30;;
15818;SDS011;8010;53.986;12.106;2024-03-22T01:13:03;18.67;;;9.07;;
15818;SDS011;8010;53.986;12.106;2024-03-22T01:15:28;14.33;;;9.23;;
15818;SDS011;8010;53.986;12.106;2024-03-22T01:17:54;14.47;;;8.30;;
15818;SDS011;8010;53.986;12.106;2024-03-22T01:20:20;15.90;;;8.77;;
15818;SDS011;8010;53.986;12.106;2024-03-22T01:22:46;17.43;;;8.80;;
15818;SDS011;8010;53.986;12.106;2024-03-22T01:25:12;18.53;;;9.50;;
15818;SDS011;8010;53.986;12.106;2024-03-22T01:27:37;16.17;;;8.23;;
15818;SDS011;8010;53.986;12.106;2024-03-22T01:30:03;18.93;;;9.50;;
15818;SDS011;8010;53.986;12.106;2024-03-22T01:32:29;17.53;;;8.83;;
15818;SDS011;8010;53.986;12.106;2024-03-22T01:34:54;16.50;;;8.57;;
15818;SDS011;8010;53.986;12.106;2024-03-22T01:37:20;18.03;;;8.97;;
15818;SDS011;8010;53.986;12.106;2024-03-22T01:39:45;17.10;;;8.60;;
15818;SDS011;8010;53.986;12.106;2024-03-22T01:42:11;12.80;;;8.17;;
15818;SDS011;8010;53.986;12.106;2024-03-22T01:44:36;18.27;;;8.70;;
15818;SDS011;8010;53.986;12.106;2024-03-22T01:47:02;16.70;;;8.30;;
15818;SDS011;8010;53.986;12.106;2024-03-22T01:49:28;17.63;;;9.27;;
15818;SDS011;8010;53.986;12.106;2024-03-22T01:51:55;18.33;;;8.60;;
15818;SDS011;8010;53.986;12.106;2024-03-22T01:54:21;14.93;;;7.90;;
15818;SDS011;8010;53.986;12.106;2024-03-22T01:56:47;16.03;;;7.83;;
15818;SDS011;8010;53.986;12.106;2024-03-22T01:59:13;16.67;;;8.43;;
15818;SDS011;8010;53.986;12.106;2024-03-22T02:01:39;17.30;;;8.53;;
15818;SDS011;8010;53.986;12.106;2024-03-22T02:04:05;15.87;;;8.03;;
15818;SDS011;8010;53.986;12.106;2024-03-22T02:06:31;14.90;;;7.80;;
15818;SDS011;8010;53.986;12.106;2024-03-22T02:08:57;16.97;;;8.93;;
15818;SDS011;8010;53.986;12.106;2024-03-22T02:11:23;13.70;;;8.07;;
15818;SDS011;8010;53.986;12.106;2024-03-22T02:13:49;18.20;;;9.13;;
15818;SDS011;8010;53.986;12.106;2024-03-22T02:16:15;12.70;;;8.40;;
15818;SDS011;8010;53.986;12.106;2024-03-22T02:18:41;18.37;;;8.33;;
15818;SDS011;8010;53.986;12.106;2024-03-22T02:21:07;14.63;;;8.13;;
15818;SDS011;8010;53.986;12.106;2024-03-22T02:23:33;15.07;;;7.73;;
15818;SDS011;8010;53.986;12.106;2024-03-22T02:26:00;17.63;;;8.57;;
15818;SDS011;8010;53.986;12.106;2024-03-22T02:28:26;16.30;;;8.30;;
15818;SDS011;8010;53.986;12.106;2024-03-22T02:30:51;18.60;;;8.53;;
15818;SDS011;8010;53.986;12.106;2024-03-22T02:33:17;16.17;;;7.53;;
15818;SDS011;8010;53.986;12.106;2024-03-22T02:35:43;14.30;;;8.43;;
15818;SDS011;8010;53.986;12.106;2024-03-22T02:38:11;13.77;;;7.37;;
15818;SDS011;8010;53.986;12.106;2024-03-22T02:40:36;15.73;;;8.20;;
15818;SDS011;8010;53.986;12.106;2024-03-22T02:43:02;11.13;;;7.10;;
15818;SDS011;8010;53.986;12.106;2024-03-22T02:45:27;13.67;;;7.63;;
15818;SDS011;8010;53.986;12.106;2024-03-22T02:47:53;12.97;;;6.90;;
15818;SDS011;8010;53.986;12.106;2024-03-22T02:50:18;16.77;;;8.57;;
15818;SDS011;8010;53.986;12.106;2024-03-22T02:52:44;15.93;;;7.53;;
15818;SDS011;8010;53.986;12.106;2024-03-22T02:55:09;17.10;;;7.20;;
15818;SDS011;8010;53.986;12.106;2024-03-22T02:57:35;14.10;;;8.13;;
15818;SDS011;8010;53.986;12.106;2024-03-22T03:00:00;15.30;;;7.17;;
15818;SDS011;8010;53.986;12.106;2024-03-22T03:02:26;14.30;;;6.93;;
15818;SDS011;8010;53.986;12.106;2024-03-22T03:04:51;16.83;;;7.20;;
15818;SDS011;8010;53.986;12.106;2024-03-22T03:07:17;15.17;;;8.13;;
15818;SDS011;8010;53.986;12.106;2024-03-22T03:09:42;12.47;;;7.90;;
15818;SDS011;8010;53.986;12.106;2024-03-22T03:12:08;11.63;;;7.47;;
15818;SDS011;8010;53.986;12.106;2024-03-22T03:14:33;14.50;;;7.43;;
15818;SDS011;8010;53.986;12.106;2024-03-22T03:16:59;13.87;;;7.73;;
15818;SDS011;8010;53.986;12.106;2024-03-22T03:19:24;17.07;;;8.20;;
15818;SDS011;8010;53.986;12.106;2024-03-22T03:21:50;15.17;;;8.87;;
15818;SDS011;8010;53.986;12.106;2024-03-22T03:24:15;16.50;;;7.50;;
15818;SDS011;8010;53.986;12.106;2024-03-22T03:26:41;12.10;;;6.53;;
15818;SDS011;8010;53.986;12.106;2024-03-22T03:29:06;16.90;;;7.93;;
15818;SDS011;8010;53.986;12.106;2024-03-22T03:31:32;13.33;;;7.47;;
15818;SDS011;8010;53.986;12.106;2024-03-22T03:33:57;16.23;;;7.43;;
15818;SDS011;8010;53.986;12.106;2024-03-22T03:36:23;18.43;;;7.50;;
15818;SDS011;8010;53.986;12.106;2024-03-22T03:38:49;12.37;;;7.53;;
15818;SDS011;8010;53.986;12.106;2024-03-22T03:41:14;15.13;;;8.20;;
15818;SDS011;8010;53.986;12.106;2024-03-22T03:43:40;15.57;;;7.03;;
15818;SDS011;8010;53.986;12.106;2024-03-22T03:46:05;15.90;;;8.47;;
15818;SDS011;8010;53.986;12.106;2024-03-22T03:48:31;16.57;;;7.93;;
15818;SDS011;8010;53.986;12.106;2024-03-22T03:50:56;20.20;;;8.23;;
15818;SDS011;8010;53.986;12.106;2024-03-22T03:53:27;16.83;;;8.33;;
15818;SDS011;8010;53.986;12.106;2024-03-22T03:55:53;12.97;;;7.90;;
15818;SDS011;8010;53.986;12.106;2024-03-22T03:58:18;14.97;;;8.03;;
15818;SDS011;8010;53.986;12.106;2024-03-22T04:00:44;14.73;;;8.37;;
15818;SDS011;8010;53.986;12.106;2024-03-22T04:03:10;12.17;;;7.27;;
15818;SDS011;8010;53.986;12.106;2024-03-22T04:05:35;14.70;;;7.77;;
15818;SDS011;8010;53.986;12.106;2024-03-22T04:08:01;15.23;;;7.93;;
15818;SDS011;8010;53.986;12.106;2024-03-22T04:10:26;11.97;;;7.73;;
15818;SDS011;8010;53.986;12.106;2024-03-22T04:12:52;13.50;;;7.80;;
15818;SDS011;8010;53.986;12.106;2024-03-22T04:15:17;16.67;;;8.43;;
15818;SDS011;8010;53.986;12.106;2024-03-22T04:17:43;17.80;;;8.20;;
15818;SDS011;8010;53.986;12.106;2024-03-22T04:20:09;14.07;;;8.50;;
15818;SDS011;8010;53.986;12.106;2024-03-22T04:22:36;12.57;;;8.00;;
15818;SDS011;8010;53.986;12.106;2024-03-22T04:25:02;14.73;;;8.07;;
15818;SDS011;8010;53.986;12.106;2024-03-22T04:27:27;16.70;;;8.93;;
15818;SDS011;8010;53.986;12.106;2024-03-22T04:29:53;15.13;;;8.20;;
15818;SDS011;8010;53.986;12.106;2024-03-22T04:32:18;13.97;;;8.10;;
15818;SDS011;8010;53.986;12.106;2024-03-22T04:34:44;17.93;;;9.10;;
15818;SDS011;8010;53.986;12.106;2024-03-22T04:37:10;13.23;;;8.93;;
15818;SDS011;8010;53.986;12.106;2024-03-22T04:39:39;15.60;;;8.97;;
15818;SDS011;8010;53.986;12.106;2024-03-22T04:42:05;16.60;;;8.37;;
15818;SDS011;8010;53.986;12.106;2024-03-22T04:44:32;19.33;;;9.30;;
15818;SDS011;8010;53.986;12.106;2024-03-22T04:46:57;17.77;;;9.60;;
15818;SDS011;8010;53.986;12.106;2024-03-22T04:49:23;13.07;;;8.40;;
15818;SDS011;8010;53.986;12.106;2024-03-22T04:51:48;15.57;;;8.70;;
15818;SDS011;8010;53.986;12.106;2024-03-22T04:54:14;14.60;;;9.37;;
15818;SDS011;8010;53.986;12.106;2024-03-22T04:56:39;15.83;;;9.70;;
15818;SDS011;8010;53.986;12.106;2024-03-22T04:59:05;17.03;;;9.70;;
15818;SDS011;8010;53.986;12.106;2024-03-22T05:01:31;15.57;;;9.60;;
15818;SDS011;8010;53.986;12.106;2024-03-22T05:03:56;18.53;;;9.77;;
15818;SDS011;8010;53.986;12.106;2024-03-22T05:06:22;17.20;;;9.53;;
15818;SDS011;8010;53.986;12.106;2024-03-22T05:08:47;16.73;;;9.67;;
15818;SDS011;8010;53.986;12.106;2024-03-22T05:11:13;22.60;;;10.33;;
15818;SDS011;8010;53.986;12.106;2024-03-22T05:13:38;19.27;;;10.10;;
15818;SDS011;8010;53.986;12.106;2024-03-22T05:16:07;17.00;;;9.80;;
15818;SDS011;8010;53.986;12.106;2024-03-22T05:18:32;19.53;;;10.20;;
15818;SDS011;8010;53.986;12.106;2024-03-22T05:20:58;17.37;;;10.07;;
15818;SDS011;8010;53.986;12.106;2024-03-22T05:23:24;16.33;;;10.20;;
15818;SDS011;8010;53.986;12.106;2024-03-22T05:25:49;21.07;;;11.40;;
15818;SDS011;8010;53.986;12.106;2024-03-22T05:28:15;18.77;;;11.30;;
15818;SDS011;8010;53.986;12.106;2024-03-22T05:30:40;20.03;;;11.23;;
15818;SDS011;8010;53.986;12.106;2024-03-22T05:33:06;19.33;;;10.87;;
15818;SDS011;8010;53.986;12.106;2024-03-22T05:35:31;22.23;;;12.47;;
15818;SDS011;8010;53.986;12.106;2024-03-22T05:37:57;21.50;;;11.83;;
15818;SDS011;8010;53.986;12.106;2024-03-22T05:40:22;23.13;;;10.77;;
15818;SDS011;8010;53.986;12.106;2024-03-22T05:42:48;21.50;;;10.23;;
15818;SDS011;8010;53.986;12.106;2024-03-22T05:45:14;20.10;;;12.40;;
15818;SDS011;8010;53.986;12.106;2024-03-22T05:47:39;23.20;;;12.50;;
15818;SDS011;8010;53.986;12.106;2024-03-22T05:50:05;24.03;;;12.13;;
15818;SDS011;8010;53.986;12.106;2024-03-22T05:52:34;20.53;;;12.23;;
15818;SDS011;8010;53.986;12.106;2024-03-22T05:54:59;23.10;;;12.10;;
15818;SDS011;8010;53.986;12.106;2024-03-22T05:57:25;21.63;;;12.87;;
15818;SDS011;8010;53.986;12.106;2024-03-22T05:59:51;23.73;;;11.53;;
15818;SDS011;8010;53.986;12.106;2024-03-22T06:02:18;17.73;;;10.77;;
15818;SDS011;8010;53.986;12.106;2024-03-22T06:04:43;22.47;;;12.80;;
15818;SDS011;8010;53.986;12.106;2024-03-22T06:07:09;19.43;;;11.77;;
15818;SDS011;8010;53.986;12.106;2024-03-22T06:09:35;23.93;;;13.30;;
15818;SDS011;8010;53.986;12.106;2024-03-22T06:12:11;21.17;;;12.80;;
15818;SDS011;8010;53.986;12.106;2024-03-22T06:14:40;19.40;;;12.13;;
15818;SDS011;8010;53.986;12.106;2024-03-22T06:17:06;21.53;;;12.87;;
15818;SDS011;8010;53.986;12.106;2024-03-22T06:19:31;23.50;;;12.70;;
15818;SDS011;8010;53.986;12.106;2024-03-22T06:21:57;23.30;;;13.00;;
15818;SDS011;8010;53.986;12.106;2024-03-22T06:24:22;24.37;;;12.57;;
15818;SDS011;8010;53.986;12.106;2024-03-22T06:26:48;18.77;;;11.43;;
15818;SDS011;8010;53.986;12.106;2024-03-22T06:29:14;24.93;;;13.70;;
15818;SDS011;8010;53.986;12.106;2024-03-22T06:31:41;23.97;;;13.50;;
15818;SDS011;8010;53.986;12.106;2024-03-22T06:34:07;23.30;;;13.77;;
15818;SDS011;8010;53.986;12.106;2024-03-22T06:36:32;24.50;;;14.37;;
15818;SDS011;8010;53.986;12.106;2024-03-22T06:38:58;22.07;;;13.10;;
15818;SDS011;8010;53.986;12.106;2024-03-22T06:41:24;23.93;;;13.77;;
15818;SDS011;8010;53.986;12.106;2024-03-22T06:43:51;26.03;;;14.77;;
15818;SDS011;8010;53.986;12.106;2024-03-22T06:46:16;26.43;;;14.40;;
15818;SDS011;8010;53.986;12.106;2024-03-22T06:48:42;25.27;;;14.17;;
15818;SDS011;8010;53.986;12.106;2024-03-22T06:51:08;25.63;;;14.23;;
15818;SDS011;8010;53.986;12.106;2024-03-22T06:53:33;28.07;;;14.43;;
15818;SDS011;8010;53.986;12.106;2024-03-22T06:55:59;25.40;;;14.57;;
15818;SDS011;8010;53.986;12.106;2024-03-22T06:58:25;20.50;;;11.33;;
15818;SDS011;8010;53.986;12.106;2024-03-22T07:00:50;26.57;;;14.93;;
15818;SDS011;8010;53.986;12.106;2024-03-22T07:03:16;25.17;;;14.40;;
15818;SDS011;8010;53.986;12.106;2024-03-22T07:05:42;24.33;;;13.70;;
15818;SDS011;8010;53.986;12.106;2024-03-22T07:08:08;27.67;;;16.13;;
15818;SDS011;8010;53.986;12.106;2024-03-22T07:10:34;26.83;;;14.80;;
15818;SDS011;8010;53.986;12.106;2024-03-22T07:13:00;25.50;;;15.23;;
15818;SDS011;8010;53.986;12.106;2024-03-22T07:15:26;25.83;;;15.97;;
15818;SDS011;8010;53.986;12.106;2024-03-22T07:17:51;25.17;;;14.50;;
15818;SDS011;8010;53.986;12.106;2024-03-22T07:20:17;24.63;;;15.53;;
15818;SDS011;8010;53.986;12.106;2024-03-22T07:22:43;27.17;;;16.17;;
15818;SDS011;8010;53.986;12.106;2024-03-22T07:25:09;29.90;;;16.43;;
15818;SDS011;8010;53.986;12.106;2024-03-22T07:27:35;27.87;;;17.20;;
15818;SDS011;8010;53.986;12.106;2024-03-22T07:30:01;31.40;;;16.30;;
15818;SDS011;8010;53.986;12.106;2024-03-22T07:32:28;27.50;;;16.47;;
15818;SDS011;8010;53.986;12.106;2024-03-22T07:34:54;30.33;;;17.17;;
15818;SDS011;8010;53.986;12.106;2024-03-22T07:37:19;30.00;;;15.17;;
15818;SDS011;8010;53.986;12.106;2024-03-22T07:39:45;26.13;;;14.67;;
15818;SDS011;8010;53.986;12.106;2024-03-22T07:42:11;27.03;;;14.60;;
15818;SDS011;8010;53.986;12.106;2024-03-22T07:44:36;27.67;;;16.10;;
15818;SDS011;8010;53.986;12.106;2024-03-22T07:47:02;27.57;;;16.37;;
15818;SDS011;8010;53.986;12.106;2024-03-22T07:49:27;27.60;;;16.73;;
15818;SDS011;8010;53.986;12.106;2024-03-22T07:51:53;28.33;;;15.83;;
15818;SDS011;8010;53.986;12.106;2024-03-22T07:54:18;28.53;;;17.30;;
15818;SDS011;8010;53.986;12.106;2024-03-22T07:56:45;33.87;;;18.23;;
15818;SDS011;8010;53.986;12.106;2024-03-22T07:59:11;31.50;;;17.97;;
15818;SDS011;8010;53.986;12.106;2024-03-22T08:01:36;28.13;;;17.73;;
15818;SDS011;8010;53.986;12.106;2024-03-22T08:04:02;30.53;;;17.00;;
15818;SDS011;8010;53.986;12.106;2024-03-22T08:06:28;27.87;;;15.97;;
15818;SDS011;8010;53.986;12.106;2024-03-22T08:08:53;30.27;;;17.30;;
15818;SDS011;8010;53.986;12.106;2024-03-22T08:11:19;30.43;;;18.10;;
15818;SDS011;8010;53.986;12.106;2024-03-22T08:13:44;30.03;;;17.30;;
15818;SDS011;8010;53.986;12.106;2024-03-22T08:16:10;32.73;;;18.33;;
15818;SDS011;8010;53.986;12.106;2024-03-22T08:18:35;31.67;;;18.90;;
15818;SDS011;8010;53.986;12.106;2024-03-22T08:21:01;30.80;;;18.93;;
15818;SDS011;8010;53.986;12.106;2024-03-22T08:23:27;30.07;;;18.43;;
15818;SDS011;8010;53.986;12.106;2024-03-22T08:25:53;34.93;;;19.13;;
15818;SDS011;8010;53.986;12.106;2024-03-22T08:28:18;29.40;;;17.60;;
15818;SDS011;8010;53.986;12.106;2024-03-22T08:30:44;34.30;;;19.70;;
15818;SDS011;8010;53.986;12.106;2024-03-22T08:33:10;31.00;;;18.23;;
15818;SDS011;8010;53.986;12.106;2024-03-22T08:35:36;31.60;;;18.87;;
15818;SDS011;8010;53.986;12.106;2024-03-22T08:38:02;30.73;;;18.87;;
15818;SDS011;8010;53.986;12.106;2024-03-22T08:40:28;35.67;;;19.50;;
15818;SDS011;8010;53.986;12.106;2024-03-22T08:42:53;35.40;;;18.57;;
15818;SDS011;8010;53.986;12.106;2024-03-22T08:45:19;29.97;;;17.57;;
15818;SDS011;8010;53.986;12.106;2024-03-22T08:47:45;30.47;;;17.43;;
15818;SDS011;8010;53.986;12.106;2024-03-22T08:50:11;32.00;;;19.23;;
15818;SDS011;8010;53.986;12.106;2024-03-22T08:52:36;36.80;;;19.83;;
15818;SDS011;8010;53.986;12.106;2024-03-22T08:55:03;33.60;;;18.93;;
15818;SDS011;8010;53.986;12.106;2024-03-22T08:57:30;33.63;;;20.33;;
15818;SDS011;8010;53.986;12.106;2024-03-22T08:59:56;32.40;;;19.63;;
15818;SDS011;8010;53.986;12.106;2024-03-22T09:02:22;35.33;;;19.60;;
15818;SDS011;8010;53.986;12.106;2024-03-22T09:04:47;33.43;;;20.27;;
15818;SDS011;8010;53.986;12.106;2024-03-22T09:07:13;33.07;;;19.17;;
15818;SDS011;8010;53.986;12.106;2024-03-22T09:09:39;35.87;;;20.63;;
15818;SDS011;8010;53.986;12.106;2024-03-22T09:12:04;34.50;;;20.03;;
15818;SDS011;8010;53.986;12.106;2024-03-22T09:14:30;36.93;;;21.43;;
15818;SDS011;8010;53.986;12.106;2024-03-22T09:16:55;36.60;;;19.00;;
15818;SDS011;8010;53.986;12.106;2024-03-22T09:19:21;33.57;;;20.53;;
15818;SDS011;8010;53.986;12.106;2024-03-22T09:21:46;34.80;;;19.50;;
15818;SDS011;8010;53.986;12.106;2024-03-22T09:24:12;36.43;;;20.03;;
15818;SDS011;8010;53.986;12.106;2024-03-22T09:26:37;37.53;;;21.10;;
15818;SDS011;8010;53.986;12.106;2024-03-22T09:29:03;38.07;;;21.13;;
15818;SDS011;8010;53.986;12.106;2024-03-22T09:31:29;37.17;;;20.77;;
15818;SDS011;8010;53.986;12.106;2024-03-22T09:33:55;32.93;;;18.10;;
15818;SDS011;8010;53.986;12.106;2024-03-22T09:36:21;34.93;;;18.77;;
15818;SDS011;8010;53.986;12.106;2024-03-22T09:38:47;38.83;;;20.33;;
15818;SDS011;8010;53.986;12.106;2024-03-22T09:41:14;30.07;;;17.67;;
15818;SDS011;8010;53.986;12.106;2024-03-22T09:43:40;34.47;;;19.00;;
15818;SDS011;8010;53.986;12.106;2024-03-22T09:46:09;36.10;;;22.07;;
15818;SDS011;8010;53.986;12.106;2024-03-22T09:48:37;36.10;;;20.77;;
15818;SDS011;8010;53.986;12.106;2024-03-22T09:51:03;38.53;;;22.03;;
15818;SDS011;8010;53.986;12.106;2024-03-22T09:53:29;36.77;;;21.10;;
15818;SDS011;8010;53.986;12.106;2024-03-22T09:55:56;38.77;;;21.00;;
15818;SDS011;8010;53.986;12.106;2024-03-22T09:58:24;37.20;;;19.63;;
15818;SDS011;8010;53.986;12.106;2024-03-22T10:00:50;34.67;;;20.73;;
15818;SDS011;8010;53.986;12.106;2024-03-22T10:03:15;34.80;;;20.83;;
15818;SDS011;8010;53.986;12.106;2024-03-22T10:05:41;33.93;;;20.77;;
15818;SDS011;8010;53.986;12.106;2024-03-22T10:08:06;34.30;;;19.40;;
15818;SDS011;8010;53.986;12.106;2024-03-22T10:10:32;39.20;;;21.87;;
15818;SDS011;8010;53.986;12.106;2024-03-22T10:13:02;36.00;;;21.40;;
15818;SDS011;8010;53.986;12.106;2024-03-22T10:15:29;37.83;;;22.40;;
15818;SDS011;8010;53.986;12.106;2024-03-22T10:17:58;35.63;;;21.57;;
15818;SDS011;8010;53.986;12.106;2024-03-22T10:20:23;35.63;;;19.03;;
15818;SDS011;8010;53.986;12.106;2024-03-22T10:22:54;36.77;;;19.57;;
15818;SDS011;8010;53.986;12.106;2024-03-22T10:25:21;31.10;;;17.47;;
15818;SDS011;8010;53.986;12.106;2024-03-22T10:27:53;34.63;;;19.87;;
15818;SDS011;8010;53.986;12.106;2024-03-22T10:30:24;40.00;;;22.60;;
15818;SDS011;8010;53.986;12.106;2024-03-22T10:32:50;36.67;;;20.67;;
15818;SDS011;8010;53.986;12.106;2024-03-22T10:35:16;34.70;;;20.90;;
15818;SDS011;8010;53.986;12.106;2024-03-22T10:37:42;36.17;;;20.40;;
15818;SDS011;8010;53.986;12.106;2024-03-22T10:40:08;32.83;;;19.33;;
15818;SDS011;8010;53.986;12.106;2024-03-22T10:42:38;32.53;;;18.67;;
15818;SDS011;8010;53.986;12.106;2024-03-22T10:45:05;36.23;;;21.30;;
15818;SDS011;8010;53.986;12.106;2024-03-22T10:47:34;37.83;;;19.77;;
15818;SDS011;8010;53.986;12.106;2024-03-22T10:52:57;33.03;;;18.80;;
15818;SDS011;8010;53.986;12.106;2024-03-22T10:55:36;32.37;;;19.07;;
15818;SDS011;8010;53.986;12.106;2024-03-22T10:58:04;33.80;;;19.20;;
15818;SDS011;8010;53.986;12.106;2024-03-22T11:00:30;34.60;;;19.40;;
15818;SDS011;8010;53.986;12.106;2024-03-22T11:03:03;33.87;;;19.53;;
15818;SDS011;8010;53.986;12.106;2024-03-22T11:05:29;34.37;;;19.30;;
15818;SDS011;8010;53.986;12.106;2024-03-22T11:08:04;36.53;;;20.87;;
15818;SDS011;8010;53.986;12.106;2024-03-22T11:10:31;33.33;;;18.77;;
15818;SDS011;8010;53.986;12.106;2024-03-22T11:13:00;35.53;;;20.43;;
15818;SDS011;8010;53.986;12.106;2024-03-22T11:15:28;27.77;;;15.60;;
15818;SDS011;8010;53.986;12.106;2024-03-22T11:17:54;37.47;;;21.33;;
15818;SDS011;8010;53.986;12.106;2024-03-22T11:20:20;34.40;;;18.50;;
15818;SDS011;8010;53.986;12.106;2024-03-22T11:22:45;38.40;;;22.10;;
15818;SDS011;8010;53.986;12.106;2024-03-22T11:25:11;36.00;;;19.70;;
15818;SDS011;8010;53.986;12.106;2024-03-22T11:27:36;37.40;;;21.07;;
15818;SDS011;8010;53.986;12.106;2024-03-22T11:30:02;39.23;;;20.43;;
15818;SDS011;8010;53.986;12.106;2024-03-22T11:32:28;36.23;;;20.20;;
15818;SDS011;8010;53.986;12.106;2024-03-22T11:34:55;39.90;;;20.27;;
15818;SDS011;8010;53.986;12.106;2024-03-22T11:37:21;40.43;;;21.30;;
15818;SDS011;8010;53.986;12.106;2024-03-22T11:39:46;34.10;;;19.77;;
15818;SDS011;8010;53.986;12.106;2024-03-22T11:42:13;39.60;;;22.00;;
15818;SDS011;8010;53.986;12.106;2024-03-22T11:44:39;36.03;;;20.83;;
15818;SDS011;8010;53.986;12.106;2024-03-22T11:47:05;36.73;;;19.90;;
15818;SDS011;8010;53.986;12.106;2024-03-22T11:49:31;38.10;;;20.30;;
15818;SDS011;8010;53.986;12.106;2024-03-22T11:51:56;32.50;;;18.33;;
15818;SDS011;8010;53.986;12.106;2024-03-22T11:54:22;37.00;;;20.10;;
15818;SDS011;8010;53.986;12.106;2024-03-22T11:56:48;33.10;;;19.40;;
15818;SDS011;8010;53.986;12.106;2024-03-22T11:59:14;36.90;;;18.47;;
15818;SDS011;8010;53.986;12.106;2024-03-22T12:01:43;33.33;;;19.80;;
15818;SDS011;8010;53.986;12.106;2024-03-22T12:04:09;29.27;;;17.13;;
15818;SDS011;8010;53.986;12.106;2024-03-22T12:06:40;34.07;;;18.80;;
15818;SDS011;8010;53.986;12.106;2024-03-22T12:09:10;34.40;;;19.03;;
15818;SDS011;8010;53.986;12.106;2024-03-22T12:11:37;31.90;;;16.97;;
15818;SDS011;8010;53.986;12.106;2024-03-22T12:14:03;31.47;;;18.57;;
15818;SDS011;8010;53.986;12.106;2024-03-22T12:16:28;33.43;;;18.00;;
15818;SDS011;8010;53.986;12.106;2024-03-22T12:18:54;27.87;;;16.93;;
15818;SDS011;8010;53.986;12.106;2024-03-22T12:21:19;27.57;;;14.10;;
15818;SDS011;8010;53.986;12.106;2024-03-22T12:23:45;24.87;;;13.87;;
15818;SDS011;8010;53.986;12.106;2024-03-22T12:26:10;20.13;;;10.73;;
15818;SDS011;8010;53.986;12.106;2024-03-22T12:28:36;20.70;;;12.73;;
15818;SDS011;8010;53.986;12.106;2024-03-22T12:31:01;21.60;;;13.90;;
15818;SDS011;8010;53.986;12.106;2024-03-22T12:33:28;18.07;;;10.30;;
15818;SDS011;8010;53.986;12.106;2024-03-22T12:35:54;18.80;;;12.17;;
15818;SDS011;8010;53.986;12.106;2024-03-22T12:38:19;16.63;;;10.90;;
15818;SDS011;8010;53.986;12.106;2024-03-22T12:40:45;17.77;;;10.80;;
15818;SDS011;8010;53.986;12.106;2024-03-22T12:43:11;15.77;;;10.07;;
15818;SDS011;8010;53.986;12.106;2024-03-22T12:45:36;15.57;;;10.27;;
15818;SDS011;8010;53.986;12.106;2024-03-22T12:48:02;16.70;;;10.00;;
15818;SDS011;8010;53.986;12.106;2024-03-22T12:50:29;18.93;;;11.33;;
15818;SDS011;8010;53.986;12.106;2024-03-22T12:52:55;17.73;;;10.20;;
15818;SDS011;8010;53.986;12.106;2024-03-22T12:55:21;13.97;;;9.80;;
15818;SDS011;8010;53.986;12.106;2024-03-22T12:57:46;14.70;;;9.17;;
15818;SDS011;8010;53.986;12.106;2024-03-22T13:00:12;15.13;;;9.40;;
15818;SDS011;8010;53.986;12.106;2024-03-22T13:02:39;12.20;;;8.57;;
15818;SDS011;8010;53.986;12.106;2024-03-22T13:05:05;13.23;;;8.40;;
15818;SDS011;8010;53.986;12.106;2024-03-22T13:07:31;12.77;;;8.77;;
15818;SDS011;8010;53.986;12.106;2024-03-22T13:09:57;12.20;;;8.57;;
15818;SDS011;8010;53.986;12.106;2024-03-22T13:12:25;11.60;;;8.37;;
15818;SDS011;8010;53.986;12.106;2024-03-22T13:14:51;14.87;;;9.83;;
15818;SDS011;8010;53.986;12.106;2024-03-22T13:17:17;14.13;;;8.07;;
15818;SDS011;8010;53.986;12.106;2024-03-22T13:19:42;12.57;;;8.43;;
15818;SDS011;8010;53.986;12.106;2024-03-22T13:22:08;14.13;;;9.50;;
15818;SDS011;8010;53.986;12.106;2024-03-22T13:24:34;14.30;;;9.47;;
15818;SDS011;8010;53.986;12.106;2024-03-22T13:27:00;13.90;;;8.63;;
15818;SDS011;8010;53.986;12.106;2024-03-22T13:29:27;13.33;;;8.30;;
15818;SDS011;8010;53.986;12.106;2024-03-22T13:31:53;9.60;;;5.87;;
15818;SDS011;8010;53.986;12.106;2024-03-22T13:34:18;11.07;;;7.30;;
15818;SDS011;8010;53.986;12.106;2024-03-22T13:36:44;10.97;;;7.00;;
15818;SDS011;8010;53.986;12.106;2024-03-22T13:39:09;11.50;;;7.70;;
15818;SDS011;8010;53.986;12.106;2024-03-22T13:41:40;10.87;;;6.90;;
15818;SDS011;8010;53.986;12.106;2024-03-22T13:44:06;11.83;;;7.00;;
15818;SDS011;8010;53.986;12.106;2024-03-22T13:46:33;9.93;;;6.97;;
15818;SDS011;8010;53.986;12.106;2024-03-22T13:49:01;10.33;;;6.73;;
15818;SDS011;8010;53.986;12.106;2024-03-22T13:51:28;10.27;;;6.47;;
15818;SDS011;8010;53.986;12.106;2024-03-22T13:53:54;8.63;;;5.77;;
15818;SDS011;8010;53.986;12.106;2024-03-22T13:56:20;13.13;;;7.00;;
15818;SDS011;8010;53.986;12.106;2024-03-22T13:58:46;9.13;;;6.63;;
15818;SDS011;8010;53.986;12.106;2024-03-22T14:01:11;9.77;;;6.27;;
15818;SDS011;8010;53.986;12.106;2024-03-22T14:03:37;8.40;;;5.60;;
15818;SDS011;8010;53.986;12.106;2024-03-22T14:06:02;9.17;;;6.20;;
15818;SDS011;8010;53.986;12.106;2024-03-22T14:08:28;7.93;;;5.70;;
15818;SDS011;8010;53.986;12.106;2024-03-22T14:10:54;7.37;;;5.30;;
15818;SDS011;8010;53.986;12.106;2024-03-22T14:13:19;7.50;;;5.07;;
15818;SDS011;8010;53.986;12.106;2024-03-22T14:15:45;6.23;;;4.33;;
15818;SDS011;8010;53.986;12.106;2024-03-22T14:18:10;5.90;;;4.40;;
15818;SDS011;8010;53.986;12.106;2024-03-22T14:20:36;8.17;;;4.63;;
15818;SDS011;8010;53.986;12.106;2024-03-22T14:23:01;5.47;;;3.87;;